Time;durP1;ratioP1;P1;durP2;ratioP2;P2;SDS_P1;SDS_P2;PMS_P1;PMS_P2;Temp;Humidity;BMP_temperature;BMP_pressure;BME280_temperature;BME280_humidity;BME280_pressure;Samples;Min_cycle;Max_cycle;Signal;HPM_P1;HPM_P2
2021/12/16 00:08:33;;;;;;;88.35;39.97;;;;;;;;;;5098119;28;20090;-84
2021/12/16 00:11:16;;;;;;;93.43;40.67;;;;;;;;;;5098152;28;20047;-85
2021/12/16 00:30:44;;;;;;;97.68;43.55;;;7.60;99.90;;;;;;5116340;28;20117;-84
2021/12/16 00:33:16;;;;;;;98.78;43.72;;;;;;;;;;5116810;28;20058;-84
2021/12/16 00:35:46;;;;;;;97.32;43.42;;;7.70;99.90;;;;;;5101621;28;20048;-84
2021/12/16 00:38:12;;;;;;;89.43;41.55;;;;;;;;;;5088530;28;20055;-84
2021/12/16 00:40:40;;;;;;;88.88;41.17;;;;;;;;;;5081412;28;20051;-85
2021/12/16 00:46:28;;;;;;;96.82;42.45;;;;;;;;;;5035824;28;20135;-85
2021/12/16 00:49:19;;;;;;;99.22;41.30;;;;;;;;;;5036088;28;20769;-85
2021/12/16 00:54:31;;;;;;;100.03;44.17;;;;;;;;;;5035635;28;20057;-85
2021/12/16 00:57:04;;;;;;;95.43;42.35;;;7.80;99.90;;;;;;5018568;28;20098;-86
2021/12/16 00:59:35;;;;;;;97.05;42.97;;;;;;;;;;5019566;28;20056;-84
2021/12/16 01:02:55;;;;;;;99.68;43.90;;;7.70;99.90;;;;;;5019422;28;20057;-84
2021/12/16 01:33:41;;;;;;;97.55;44.40;;;7.80;99.90;;;;;;5035287;28;20446;-84
2021/12/16 01:38:17;;;;;;;86.85;41.42;;;;;;;;;;5096620;28;20058;-84
2021/12/16 01:51:53;;;;;;;85.07;41.00;;;;;;;;;;5096137;28;20550;-84
2021/12/16 01:57:10;;;;;;;94.20;42.40;;;7.70;99.90;;;;;;5095864;28;20149;-84
2021/12/16 01:59:39;;;;;;;88.13;41.20;;;;;;;;;;5078522;28;20130;-84
2021/12/16 02:02:27;;;;;;;88.35;41.65;;;7.60;99.90;;;;;;5095103;28;20458;-84
2021/12/16 02:10:16;;;;;;;97.88;43.92;;;7.60;99.90;;;;;;5095618;28;20052;-84
2021/12/16 02:29:11;;;;;;;105.80;47.42;;;;;;;;;;5114120;28;20052;-84
2021/12/16 02:36:47;;;;;;;104.13;46.65;;;;;;;;;;5114319;28;20048;-85
2021/12/16 02:39:19;;;;;;;110.80;48.08;;;7.70;99.90;;;;;;5079094;28;20047;-84
2021/12/16 02:41:47;;;;;;;113.82;50.80;;;7.70;99.90;;;;;;5078771;28;20486;-85
2021/12/16 02:49:35;;;;;;;111.32;47.38;;;;;;;;;;5095375;28;20519;-84
2021/12/16 02:52:01;;;;;;;115.47;49.08;;;;;;;;;;5096008;28;20047;-84
2021/12/16 02:54:28;;;;;;;120.05;49.42;;;7.70;99.90;;;;;;5113506;28;20374;-85
2021/12/16 02:56:55;;;;;;;117.90;50.60;;;7.70;99.90;;;;;;5095583;28;20417;-85
2021/12/16 02:59:26;;;;;;;118.70;48.40;;;;;;;;;;5078982;28;20059;-84
2021/12/16 03:01:54;;;;;;;112.20;47.33;;;7.70;99.90;;;;;;5079032;28;20046;-85
2021/12/16 03:04:23;;;;;;;104.60;46.17;;;7.70;99.90;;;;;;5078405;28;20567;-85
2021/12/16 03:06:53;;;;;;;107.57;46.80;;;7.70;99.90;;;;;;5095013;28;20378;-84
2021/12/16 03:09:34;;;;;;;112.55;47.85;;;7.70;99.90;;;;;;5078152;28;20047;-84
2021/12/16 03:14:51;;;;;;;108.40;47.40;;;;;;;;;;5095569;28;20051;-84
2021/12/16 03:17:45;;;;;;;115.28;48.53;;;;;;;;;;5078861;28;20073;-85
2021/12/16 03:20:18;;;;;;;112.03;48.92;;;;;;;;;;5114292;28;20062;-85
2021/12/16 03:23:13;;;;;;;105.07;46.97;;;;;;;;;;5082484;28;20456;-84
2021/12/16 03:26:06;;;;;;;116.47;49.25;;;;;;;;;;5098951;28;20109;-84
2021/12/16 03:31:54;;;;;;;108.43;48.67;;;7.70;99.90;;;;;;5098599;28;20056;-85
2021/12/16 03:34:09;;;;;;;116.13;48.67;;;;;;;;;;5089799;28;20047;-84
2021/12/16 03:37:01;;;;;;;120.45;48.05;;;7.70;99.90;;;;;;5081775;28;20077;-84
2021/12/16 03:39:31;;;;;;;116.65;48.97;;;7.70;99.90;;;;;;5081896;28;20044;-85
2021/12/16 03:41:58;;;;;;;110.50;49.00;;;7.70;99.90;;;;;;5081635;28;20044;-85
2021/12/16 03:44:37;;;;;;;115.32;49.53;;;;;;;;;;5081992;28;20439;-84
2021/12/16 03:47:03;;;;;;;108.38;48.20;;;;;;;;;;5081421;28;20044;-84
2021/12/16 03:49:30;;;;;;;113.95;49.20;;;;;;;;;;5065760;28;20047;-84
2021/12/16 03:52:06;;;;;;;115.40;49.60;;;7.70;99.90;;;;;;5082183;28;20046;-85
2021/12/16 03:54:38;;;;;;;117.57;49.55;;;7.70;99.90;;;;;;5117031;28;20081;-85
2021/12/16 03:57:08;;;;;;;129.75;50.33;;;7.70;99.90;;;;;;5082825;28;20139;-84
2021/12/16 03:59:35;;;;;;;115.00;48.58;;;7.80;99.90;;;;;;5084241;28;20146;-84
2021/12/16 04:02:09;;;;;;;123.53;50.60;;;7.80;99.90;;;;;;5100992;28;20047;-84
2021/12/16 04:04:35;;;;;;;119.65;50.95;;;;;;;;;;5101041;28;20123;-85
2021/12/16 04:07:05;;;;;;;128.48;51.30;;;8.00;99.90;;;;;;5086939;28;20055;-84
2021/12/16 04:09:33;;;;;;;128.48;50.08;;;;;;;;;;5105093;28;20055;-85
2021/12/16 04:12:11;;;;;;;116.55;47.65;;;;;;;;;;5096045;28;20121;-84
2021/12/16 04:14:40;;;;;;;124.55;50.00;;;7.70;99.90;;;;;;5090691;28;20046;-84
2021/12/16 04:17:08;;;;;;;124.72;50.40;;;7.70;99.90;;;;;;5089010;28;20050;-84
2021/12/16 04:19:35;;;;;;;117.40;49.15;;;7.70;99.90;;;;;;5108150;28;20048;-84
2021/12/16 04:22:10;;;;;;;124.78;49.35;;;7.70;99.90;;;;;;5089897;28;20065;-84
2021/12/16 04:24:36;;;;;;;123.72;49.70;;;;;;;;;;5089770;28;20531;-85
2021/12/16 04:27:02;;;;;;;129.25;50.35;;;;;;;;;;5105599;28;20073;-84
2021/12/16 04:29:28;;;;;;;126.50;48.95;;;7.70;99.90;;;;;;5087226;28;20044;-85
2021/12/16 04:31:56;;;;;;;125.32;50.45;;;7.70;99.90;;;;;;5099783;28;20116;-84
2021/12/16 04:34:23;;;;;;;123.57;49.80;;;7.70;99.90;;;;;;5082457;28;20055;-84
2021/12/16 04:36:49;;;;;;;136.82;51.92;;;;;;;;;;5081889;28;20044;-85
2021/12/16 04:39:19;;;;;;;133.07;50.00;;;7.70;99.90;;;;;;5081380;28;20070;-85
2021/12/16 04:41:46;;;;;;;134.60;49.47;;;7.70;99.90;;;;;;5081904;28;20493;-84
2021/12/16 04:44:15;;;;;;;116.82;47.80;;;7.70;99.90;;;;;;5064660;28;20413;-84
2021/12/16 04:46:42;;;;;;;124.28;49.08;;;7.70;99.90;;;;;;5097678;28;20096;-84
2021/12/16 04:49:10;;;;;;;126.57;49.33;;;7.70;99.90;;;;;;5081183;28;20144;-84
2021/12/16 04:51:39;;;;;;;128.43;50.63;;;7.70;99.90;;;;;;5080990;28;20082;-85
2021/12/16 04:54:07;;;;;;;136.32;51.13;;;7.80;99.90;;;;;;5081378;28;20101;-84
2021/12/16 04:56:35;;;;;;;124.22;49.72;;;7.80;99.90;;;;;;5080259;28;20055;-84
2021/12/16 04:59:03;;;;;;;135.60;49.78;;;;;;;;;;5080716;28;20048;-85
2021/12/16 05:01:30;;;;;;;138.02;50.53;;;;;;;;;;5080825;28;20050;-85
2021/12/16 05:03:56;;;;;;;131.90;49.53;;;;;;;;;;5081833;28;20088;-84
2021/12/16 05:06:23;;;;;;;137.32;50.45;;;;;;;;;;5087010;28;20043;-84
2021/12/16 05:08:49;;;;;;;118.40;48.75;;;;;;;;;;5088581;28;20077;-84
2021/12/16 05:11:18;;;;;;;128.43;49.53;;;7.80;99.90;;;;;;5086953;28;20126;-84
2021/12/16 05:13:45;;;;;;;130.27;49.25;;;7.80;99.90;;;;;;5083028;28;20054;-84
2021/12/16 05:16:12;;;;;;;135.88;51.45;;;7.80;99.90;;;;;;5098854;28;20031;-84
2021/12/16 05:18:39;;;;;;;121.60;49.22;;;;;;;;;;5082217;28;20048;-85
2021/12/16 05:24:25;;;;;;;140.63;50.53;;;;;;;;;;5083461;28;20112;-84
2021/12/16 05:26:57;;;;;;;134.55;49.30;;;7.80;99.90;;;;;;5079411;28;20048;-84
2021/12/16 05:29:23;;;;;;;117.43;48.33;;;;;;;;;;5096535;28;20044;-84
2021/12/16 05:31:50;;;;;;;122.55;48.45;;;;;;;;;;5096861;28;20083;-84
2021/12/16 05:34:21;;;;;;;125.35;50.03;;;7.80;99.90;;;;;;5096994;28;20036;-84
2021/12/16 05:36:47;;;;;;;133.80;49.28;;;;;;;;;;5079684;28;20063;-84
2021/12/16 05:39:16;;;;;;;137.80;50.42;;;7.80;99.90;;;;;;5080470;28;20044;-85
2021/12/16 05:41:42;;;;;;;128.93;49.80;;;7.80;99.90;;;;;;5079233;28;20130;-84
2021/12/16 05:44:08;;;;;;;134.73;49.78;;;;;;;;;;5079509;28;20081;-84
2021/12/16 05:46:34;;;;;;;127.00;49.92;;;;;;;;;;5096577;28;20039;-85
2021/12/16 05:49:02;;;;;;;135.48;50.45;;;7.90;99.90;;;;;;5080205;28;20051;-83
2021/12/16 05:51:31;;;;;;;132.38;49.50;;;7.80;99.90;;;;;;5097632;28;20048;-84
2021/12/16 05:54:00;;;;;;;117.45;49.05;;;7.80;99.90;;;;;;5096197;28;20501;-84
2021/12/16 05:56:26;;;;;;;117.93;47.45;;;;;;;;;;5079538;28;20055;-84
2021/12/16 05:58:53;;;;;;;126.47;48.53;;;7.80;99.90;;;;;;5085073;27;20051;-85
2021/12/16 06:01:29;;;;;;;117.18;47.80;;;7.80;99.90;;;;;;5100645;28;20500;-83
2021/12/16 06:03:56;;;;;;;108.70;46.35;;;;;;;;;;5101354;28;20453;-84
2021/12/16 06:06:24;;;;;;;118.03;47.70;;;7.80;99.90;;;;;;5117591;28;20088;-85
2021/12/16 06:08:52;;;;;;;119.63;47.15;;;7.80;99.90;;;;;;5099972;28;20405;-84
2021/12/16 06:11:22;;;;;;;106.35;45.25;;;7.90;99.90;;;;;;5099699;28;20388;-85
2021/12/16 06:27:44;;;;;;;114.00;46.20;;;7.90;99.90;;;;;;5116594;28;20281;-84
2021/12/16 06:30:15;;;;;;;119.78;47.65;;;7.80;99.90;;;;;;5092017;28;20048;-84
2021/12/16 06:32:41;;;;;;;125.10;48.40;;;;;;;;;;5113476;28;20043;-84
2021/12/16 06:35:11;;;;;;;109.75;46.20;;;7.90;99.90;;;;;;5097257;28;20066;-84
2021/12/16 06:37:38;;;;;;;122.45;47.97;;;;;;;;;;5080453;28;20138;-84
2021/12/16 06:40:08;;;;;;;119.97;47.72;;;7.80;99.90;;;;;;5079651;28;20044;-84
2021/12/16 06:42:38;;;;;;;119.07;47.08;;;;;;;;;;5096616;28;20051;-84
2021/12/16 06:45:09;;;;;;;121.60;47.53;;;;;;;;;;5096981;28;20397;-84
2021/12/16 06:48:01;;;;;;;110.22;46.92;;;;;;;;;;5079681;28;20052;-84
2021/12/16 06:50:39;;;;;;;;;;;7.90;99.90;;;;;;5096177;28;20074;-85
2021/12/16 06:53:06;;;;;;;124.00;46.92;;;;;;;;;;5096440;28;19965;-84
2021/12/16 06:55:43;;;;;;;121.63;46.80;;;;;;;;;;5116815;28;20051;-84
2021/12/16 06:58:17;;;;;;;128.13;49.28;;;;;;;;;;5116955;28;20409;-84
2021/12/16 07:00:47;;;;;;;111.23;45.67;;;;;;;;;;5082993;28;20040;-84
2021/12/16 07:03:19;;;;;;;118.65;48.78;;;;;;;;;;5082503;28;20380;-84
2021/12/16 07:05:47;;;;;;;121.22;47.97;;;7.80;99.90;;;;;;5116976;28;20109;-84
2021/12/16 07:08:17;;;;;;;121.53;46.97;;;7.80;99.90;;;;;;5099685;28;20039;-84
2021/12/16 07:10:45;;;;;;;130.43;48.92;;;7.80;99.90;;;;;;5082776;28;20051;-84
2021/12/16 07:13:18;;;;;;;128.20;48.63;;;7.90;99.90;;;;;;5117808;28;20113;-84
2021/12/16 07:15:45;;;;;;;131.90;47.85;;;7.80;99.90;;;;;;5081920;28;20048;-84
2021/12/16 07:18:11;;;;;;;129.23;48.35;;;;;;;;;;5081934;28;20100;-84
2021/12/16 07:20:38;;;;;;;137.70;49.03;;;;;;;;;;5082680;28;20094;-84
2021/12/16 07:23:07;;;;;;;133.15;49.67;;;7.80;99.90;;;;;;5099102;28;20142;-85
2021/12/16 07:25:34;;;;;;;129.95;48.53;;;7.80;99.90;;;;;;5081676;28;20503;-85
2021/12/16 07:28:04;;;;;;;136.70;49.75;;;;;;;;;;5082218;28;20659;-84
2021/12/16 07:30:30;;;;;;;137.25;49.53;;;;;;;;;;5107312;28;20060;-84
2021/12/16 07:32:56;;;;;;;131.27;49.90;;;;;;;;;;5117234;28;20489;-84
2021/12/16 07:35:24;;;;;;;132.57;50.15;;;7.70;99.90;;;;;;5082058;28;20409;-84
2021/12/16 07:37:51;;;;;;;131.25;48.88;;;;;;;;;;5082176;28;20056;-85
2021/12/16 07:40:21;;;;;;;127.47;48.63;;;7.70;99.90;;;;;;5082193;28;20102;-84
2021/12/16 07:42:59;;;;;;;144.20;50.53;;;;;;;;;;5082511;28;20127;-85
2021/12/16 07:45:26;;;;;;;135.60;49.40;;;7.70;99.90;;;;;;5081855;28;20043;-85
2021/12/16 07:47:53;;;;;;;113.28;45.47;;;;;;;;;;5082218;28;20560;-85
2021/12/16 07:50:22;;;;;;;136.13;48.65;;;7.60;99.90;;;;;;5082095;28;20439;-85
2021/12/16 07:52:50;;;;;;;143.10;50.90;;;;;;;;;;5081570;28;20058;-85
2021/12/16 07:55:17;;;;;;;147.13;50.45;;;7.50;99.90;;;;;;5081490;28;20048;-84
2021/12/16 07:57:43;;;;;;;137.90;48.65;;;;;;;;;;5081688;28;20469;-86
2021/12/16 08:00:17;;;;;;;130.10;47.53;;;7.50;99.90;;;;;;5081384;28;20050;-85
2021/12/16 08:02:44;;;;;;;145.00;50.55;;;;;;;;;;5098868;28;20120;-84
2021/12/16 08:05:10;;;;;;;134.40;49.55;;;;;;;;;;5081231;28;20055;-85
2021/12/16 08:07:37;;;;;;;126.85;48.47;;;7.40;99.90;;;;;;5098722;28;20137;-85
2021/12/16 08:10:09;;;;;;;123.22;45.85;;;7.40;99.90;;;;;;5081255;28;20435;-85
2021/12/16 08:12:36;;;;;;;115.60;44.97;;;;;;;;;;5081932;28;20047;-85
2021/12/16 08:15:03;;;;;;;164.82;50.92;;;7.30;99.90;;;;;;5081425;28;20047;-84
2021/12/16 08:17:29;;;;;;;127.50;45.42;;;;;;;;;;5082007;28;20051;-85
2021/12/16 08:19:55;;;;;;;144.50;49.08;;;;;;;;;;5082006;28;20517;-84
2021/12/16 08:22:21;;;;;;;154.07;50.30;;;;;;;;;;5082654;28;20048;-85
2021/12/16 08:24:47;;;;;;;136.27;49.33;;;;;;;;;;5082398;28;20127;-85
2021/12/16 08:27:14;;;;;;;144.80;48.78;;;;;;;;;;5081858;28;20087;-84
2021/12/16 08:29:40;;;;;;;134.98;49.45;;;;;;;;;;5081490;28;20096;-84
2021/12/16 08:32:06;;;;;;;124.75;47.65;;;;;;;;;;5082053;28;20055;-84
2021/12/16 08:34:34;;;;;;;136.77;49.90;;;;;;;;;;5098724;28;20039;-84
2021/12/16 08:37:02;;;;;;;161.50;54.47;;;7.30;99.90;;;;;;5081654;28;20126;-84
2021/12/16 08:39:28;;;;;;;176.35;55.85;;;;;;;;;;5116858;28;20043;-84
2021/12/16 08:41:57;;;;;;;166.55;57.63;;;7.40;99.90;;;;;;5081964;28;20047;-84
2021/12/16 08:44:23;;;;;;;192.25;59.63;;;7.40;99.90;;;;;;5099465;28;20047;-84
2021/12/16 08:46:52;;;;;;;156.23;54.35;;;7.50;99.90;;;;;;5088936;27;20038;-83
2021/12/16 08:49:20;;;;;;;169.10;59.00;;;;;;;;;;5099824;27;20125;-83
2021/12/16 08:51:48;;;;;;;200.32;62.03;;;7.60;99.90;;;;;;5137340;27;20039;-84
2021/12/16 08:54:16;;;;;;;189.85;61.97;;;7.60;99.90;;;;;;5101810;27;20083;-84
2021/12/16 08:56:43;;;;;;;188.88;61.33;;;;;;;;;;5119111;27;20050;-84
2021/12/16 08:59:09;;;;;;;210.63;65.80;;;;;;;;;;5118793;27;20055;-84
2021/12/16 09:01:39;;;;;;;236.45;66.85;;;7.80;99.90;;;;;;5102087;27;20042;-84
2021/12/16 09:04:06;;;;;;;216.85;62.65;;;;;;;;;;5101640;27;20427;-83
2021/12/16 09:06:32;;;;;;;243.93;65.00;;;;;;;;;;5137037;27;20039;-84
2021/12/16 09:08:59;;;;;;;220.77;64.03;;;;;;;;;;5118805;27;20465;-84
2021/12/16 09:11:27;;;;;;;242.50;65.40;;;7.90;99.90;;;;;;5101664;27;20059;-84
2021/12/16 09:13:58;;;;;;;266.77;63.47;;;8.00;99.90;;;;;;5136997;27;20083;-84
2021/12/16 09:16:28;;;;;;;255.38;65.22;;;8.00;99.90;;;;;;5100803;27;20043;-84
2021/12/16 09:18:55;;;;;;;217.20;59.70;;;;;;;;;;5101907;27;20121;-84
2021/12/16 09:21:24;;;;;;;248.00;63.90;;;8.00;99.90;;;;;;5119372;27;20051;-84
2021/12/16 09:23:50;;;;;;;287.02;63.83;;;;;;;;;;5102715;27;20055;-84
2021/12/16 09:26:17;;;;;;;232.75;61.35;;;8.00;99.90;;;;;;5103210;27;20043;-84
2021/12/16 09:28:44;;;;;;;225.75;59.70;;;8.10;99.90;;;;;;5120410;27;20039;-84
2021/12/16 09:31:16;;;;;;;204.75;57.97;;;8.10;99.90;;;;;;5120617;27;20043;-84
2021/12/16 09:33:50;;;;;;;199.27;55.47;;;8.10;99.90;;;;;;5120105;27;20051;-84
2021/12/16 09:36:26;;;;;;;209.55;55.53;;;8.20;99.90;;;;;;5121034;27;20043;-84
2021/12/16 09:38:53;;;;;;;182.32;54.25;;;8.20;99.90;;;;;;5121244;27;20507;-83
2021/12/16 09:41:20;;;;;;;151.52;50.78;;;;;;;;;;5121803;27;20545;-84
2021/12/16 09:43:48;;;;;;;168.05;55.47;;;8.20;99.90;;;;;;5121413;27;20047;-84
2021/12/16 09:46:17;;;;;;;170.95;53.10;;;8.20;99.90;;;;;;5102551;27;20042;-84
2021/12/16 09:48:47;;;;;;;172.13;52.30;;;;;;;;;;5104603;27;20051;-84
2021/12/16 09:51:21;;;;;;;145.18;48.75;;;8.20;99.90;;;;;;5105963;27;20047;-84
2021/12/16 09:53:49;;;;;;;160.55;50.33;;;;;;;;;;5129350;27;20047;-83
2021/12/16 09:56:15;;;;;;;152.43;49.47;;;;;;;;;;5104914;27;20051;-84
2021/12/16 09:58:45;;;;;;;152.65;49.25;;;8.30;99.90;;;;;;5103749;27;20418;-84
2021/12/16 10:01:13;;;;;;;141.93;48.53;;;8.20;99.90;;;;;;5120467;27;20091;-83
2021/12/16 10:03:43;;;;;;;132.55;46.17;;;8.30;99.90;;;;;;5102281;27;20378;-84
2021/12/16 10:06:09;;;;;;;137.00;46.60;;;;;;;;;;5101289;28;20051;-83
2021/12/16 10:08:36;;;;;;;135.43;47.45;;;;;;;;;;5100740;28;20047;-84
2021/12/16 10:11:03;;;;;;;121.43;45.17;;;8.30;99.90;;;;;;5117484;28;20082;-83
2021/12/16 10:13:59;;;;;;;167.20;49.55;;;;;;;;;;5117943;28;20047;-84
2021/12/16 10:19:13;;;;;;;157.55;49.65;;;8.80;99.90;;;;;;5135709;28;20043;-84
2021/12/16 10:21:41;;;;;;;161.63;49.35;;;8.20;99.90;;;;;;5100108;28;20039;-84
2021/12/16 10:24:24;;;;;;;183.75;47.38;;;8.50;99.90;;;;;;5118532;28;20047;-84
2021/12/16 10:27:04;;;;;;;136.85;44.92;;;8.50;99.90;;;;;;5118822;28;20051;-84
2021/12/16 10:29:40;;;;;;;135.93;44.88;;;8.50;99.90;;;;;;5120429;27;20883;-84
2021/12/16 10:32:53;;;;;;;107.20;41.53;;;8.50;99.90;;;;;;5103024;27;20031;-84
2021/12/16 10:35:30;;;;;;;135.52;44.60;;;8.90;99.90;;;;;;5117410;27;20556;-83
2021/12/16 10:38:04;;;;;;;132.73;44.50;;;8.50;99.90;;;;;;5101739;28;20100;-84
2021/12/16 10:40:30;;;;;;;116.43;42.05;;;;;;;;;;5083406;28;20055;-84
2021/12/16 10:42:58;;;;;;;116.15;42.58;;;8.50;99.90;;;;;;5100443;28;20051;-83
2021/12/16 10:45:32;;;;;;;120.50;41.70;;;8.60;99.90;;;;;;5082871;28;20046;-84
2021/12/16 10:48:22;;;;;;;115.13;39.17;;;8.60;99.90;;;;;;5118331;28;20044;-84
2021/12/16 10:50:55;;;;;;;128.00;42.70;;;8.60;99.90;;;;;;5083133;28;20047;-84
2021/12/16 10:53:54;;;;;;;103.20;40.38;;;8.60;99.90;;;;;;5100226;28;20047;-83
2021/12/16 10:56:34;;;;;;;113.63;39.63;;;8.60;99.90;;;;;;5081969;28;20087;-83
2021/12/16 10:59:06;;;;;;;101.35;39.22;;;;;;;;;;5092104;27;20050;-84
2021/12/16 11:01:56;;;;;;;102.35;38.70;;;8.60;99.90;;;;;;5102988;27;20042;-83
2021/12/16 11:05:03;;;;;;;94.88;39.25;;;8.60;99.90;;;;;;5103577;27;20046;-83
2021/12/16 11:07:37;;;;;;;127.50;43.22;;;8.60;99.90;;;;;;5001224;28;20051;-84
2021/12/16 11:10:28;;;;;;;116.00;42.28;;;8.60;99.90;;;;;;5002111;28;20174;-83
2021/12/16 11:12:55;;;;;;;138.63;45.22;;;8.60;99.90;;;;;;5017944;28;20041;-84
2021/12/16 11:15:31;;;;;;;109.05;40.47;;;8.60;99.90;;;;;;5017832;28;20061;-84
2021/12/16 11:18:09;;;;;;;120.40;42.88;;;8.60;99.90;;;;;;5018195;28;20439;-84
2021/12/16 11:20:41;;;;;;;119.20;44.13;;;8.60;99.90;;;;;;5001667;28;20053;-84
2021/12/16 11:23:22;;;;;;;135.88;43.22;;;8.70;99.90;;;;;;5017576;28;20049;-83
2021/12/16 11:25:55;;;;;;;122.07;42.13;;;8.70;99.90;;;;;;5018299;28;20495;-84
2021/12/16 11:28:35;;;;;;;119.32;43.10;;;8.70;99.90;;;;;;5018407;28;20431;-83
2021/12/16 11:31:12;;;;;;;104.68;40.78;;;8.70;99.90;;;;;;5037537;28;20994;-84
2021/12/16 11:34:02;;;;;;;103.68;40.08;;;8.70;99.90;;;;;;5037867;28;20041;-83
2021/12/16 11:36:35;;;;;;;107.00;41.05;;;8.70;99.90;;;;;;5021475;28;20115;-83
2021/12/16 11:39:07;;;;;;;95.13;38.35;;;8.70;99.90;;;;;;5036808;28;20057;-83
2021/12/16 11:41:43;;;;;;;91.88;37.83;;;8.70;99.90;;;;;;5070783;28;20067;-84
2021/12/16 11:44:25;;;;;;;111.88;41.42;;;8.70;99.90;;;;;;5082169;28;20397;-84
2021/12/16 11:47:01;;;;;;;124.78;41.42;;;8.70;99.90;;;;;;5117166;28;20051;-84
2021/12/16 11:49:33;;;;;;;98.85;40.42;;;8.80;99.90;;;;;;5081737;28;20086;-83
2021/12/16 11:52:11;;;;;;;109.28;40.15;;;8.70;99.90;;;;;;5081904;28;20036;-84
2021/12/16 11:54:41;;;;;;;98.72;39.20;;;8.70;99.90;;;;;;5098243;28;20052;-83
2021/12/16 11:57:07;;;;;;;102.65;39.50;;;;;;;;;;5081629;28;20051;-84
2021/12/16 11:59:44;;;;;;;100.13;38.97;;;8.80;99.90;;;;;;5081642;28;20135;-83
2021/12/16 12:02:31;;;;;;;101.35;38.90;;;8.80;99.90;;;;;;5081739;28;20055;-84
2021/12/16 12:05:35;;;;;;;82.22;36.30;;;8.80;99.90;;;;;;5098530;28;20127;-84
2021/12/16 12:08:01;;;;;;;101.65;39.38;;;;;;;;;;5081768;28;20429;-84
2021/12/16 12:10:38;;;;;;;91.38;37.05;;;9.10;99.90;;;;;;5098891;28;20481;-84
2021/12/16 12:13:07;;;;;;;115.88;37.92;;;8.90;99.90;;;;;;5081400;28;20425;-84
2021/12/16 12:16:08;;;;;;;96.40;37.22;;;8.90;99.90;;;;;;5081379;28;20508;-84
2021/12/16 12:18:37;;;;;;;101.10;35.70;;;8.90;99.90;;;;;;5098637;28;20081;-84
2021/12/16 12:21:40;;;;;;;92.93;36.03;;;8.90;99.90;;;;;;5098013;28;20043;-84
2021/12/16 12:24:18;;;;;;;96.38;34.92;;;9.10;99.90;;;;;;5081369;28;20085;-84
2021/12/16 12:26:49;;;;;;;88.75;34.60;;;8.90;99.90;;;;;;5081548;28;20087;-83
2021/12/16 12:29:37;;;;;;;88.30;34.63;;;8.90;99.90;;;;;;5081366;28;20482;-84
2021/12/16 12:32:34;;;;;;;93.68;35.05;;;9.00;99.90;;;;;;5115852;28;20036;-84
2021/12/16 12:35:07;;;;;;;103.22;35.17;;;8.90;99.90;;;;;;5081561;27;20102;-83
2021/12/16 12:37:34;;;;;;;87.95;34.30;;;8.90;99.90;;;;;;5086392;28;20409;-84
2021/12/16 12:40:16;;;;;;;85.38;33.08;;;9.00;99.90;;;;;;5097177;28;20046;-84
2021/12/16 12:42:43;;;;;;;87.95;32.97;;;9.00;99.90;;;;;;5080519;28;20093;-84
2021/12/16 12:45:12;;;;;;;78.10;32.85;;;9.00;99.90;;;;;;5080568;28;20564;-84
2021/12/16 12:47:40;;;;;;;76.35;31.33;;;9.00;99.90;;;;;;5097200;28;20048;-84
2021/12/16 12:50:18;;;;;;;89.70;33.75;;;9.00;99.90;;;;;;5081060;28;20118;-84
2021/12/16 12:52:47;;;;;;;78.28;32.60;;;;;;;;;;5080749;28;20044;-84
2021/12/16 12:55:18;;;;;;;80.10;31.48;;;9.00;99.90;;;;;;5080754;28;20086;-84
2021/12/16 12:57:46;;;;;;;86.22;32.40;;;9.00;99.90;;;;;;5080933;28;20047;-84
2021/12/16 13:00:31;;;;;;;83.93;32.95;;;9.00;99.90;;;;;;5098259;28;20401;-84
2021/12/16 13:03:11;;;;;;;72.90;30.58;;;9.00;99.90;;;;;;5080902;28;20039;-83
2021/12/16 13:05:37;;;;;;;86.72;31.60;;;;;;;;;;5097458;28;20050;-84
2021/12/16 13:08:07;;;;;;;90.15;31.23;;;9.00;99.90;;;;;;5080756;28;20039;-83
2021/12/16 13:10:43;;;;;;;98.80;32.30;;;9.00;99.90;;;;;;5080137;28;20100;-83
2021/12/16 13:14:07;;;;;;;79.05;30.73;;;8.40;99.90;;;;;;5096991;28;20059;-83
2021/12/16 13:16:22;;;;;;;80.72;32.85;;;9.00;99.90;;;;;;5085996;28;20052;-83
2021/12/16 13:27:06;;;;;;;77.75;29.83;;;9.00;99.90;;;;;;5096752;28;20051;-84
2021/12/16 13:29:40;;;;;;;86.10;31.77;;;9.00;99.90;;;;;;5114923;28;20044;-84
2021/12/16 13:32:24;;;;;;;94.85;32.53;;;8.90;99.90;;;;;;5084512;28;20059;-84
2021/12/16 13:35:05;;;;;;;75.88;28.65;;;9.00;99.90;;;;;;5080148;28;20062;-84
2021/12/16 13:37:39;;;;;;;70.32;28.80;;;9.00;99.90;;;;;;5080215;28;20055;-84
2021/12/16 13:40:20;;;;;;;87.70;29.75;;;;;;;;;;5080235;28;20046;-84
2021/12/16 13:42:57;;;;;;;86.20;29.92;;;9.00;99.90;;;;;;5080514;28;20126;-84
2021/12/16 13:45:51;;;;;;;76.70;28.80;;;8.90;99.90;;;;;;5079845;28;20048;-85
2021/12/16 13:58:02;;;;;;;76.95;30.05;;;9.00;99.90;;;;;;5079539;28;20131;-85
2021/12/16 14:07:00;;;;;;;80.88;30.05;;;8.60;99.90;;;;;;5117146;27;20062;-85
2021/12/16 14:09:32;;;;;;;95.78;32.25;;;8.90;99.90;;;;;;5100650;28;20043;-84
2021/12/16 14:17:50;;;;;;;91.93;32.28;;;8.90;99.90;;;;;;5117658;28;20130;-84
2021/12/16 14:23:36;;;;;;;79.45;29.58;;;8.80;99.90;;;;;;5131356;28;20047;-84
2021/12/16 14:35:21;;;;;;;64.55;28.08;;;;;;;;;;5121880;28;20047;-84
2021/12/16 14:42:45;;;;;;;55.10;25.25;;;8.60;99.90;;;;;;5119745;28;20047;-84
2021/12/16 14:45:23;;;;;;;54.75;24.58;;;8.80;99.90;;;;;;5119341;28;20062;-84
2021/12/16 14:50:25;;;;;;;49.70;23.70;;;8.60;99.90;;;;;;5118523;28;20086;-84
2021/12/16 14:52:51;;;;;;;54.50;23.40;;;;;;;;;;5103933;28;20051;-84
2021/12/16 14:55:18;;;;;;;50.60;24.13;;;9.30;99.90;;;;;;5122103;28;20094;-84
2021/12/16 14:57:48;;;;;;;56.10;24.67;;;8.80;99.90;;;;;;5108325;28;20043;-84
2021/12/16 15:00:35;;;;;;;57.13;23.50;;;8.80;99.90;;;;;;5134371;28;20050;-84
2021/12/16 15:03:10;;;;;;;53.45;23.27;;;8.70;99.90;;;;;;5137146;28;20054;-83
2021/12/16 15:05:43;;;;;;;58.28;24.30;;;8.80;99.90;;;;;;5118601;28;20047;-84
2021/12/16 15:08:22;;;;;;;58.30;24.27;;;8.60;99.90;;;;;;5119002;28;20071;-84
2021/12/16 15:10:49;;;;;;;61.28;24.38;;;8.70;99.90;;;;;;5116465;28;20024;-84
2021/12/16 15:13:24;;;;;;;58.92;24.40;;;;;;;;;;5133281;28;20065;-84
2021/12/16 15:16:10;;;;;;;68.65;26.48;;;;;;;;;;5100501;28;20073;-84
2021/12/16 15:35:53;;;;;;;124.05;35.50;;;8.60;99.90;;;;;;5101772;28;20048;-84
2021/12/16 15:38:38;;;;;;;125.25;33.75;;;;;;;;;;5083951;28;20058;-84
2021/12/16 15:43:55;;;;;;;130.97;35.70;;;;;;;;;;5101569;28;20048;-85
2021/12/16 15:46:22;;;;;;;178.98;44.83;;;;;;;;;;5084265;28;20048;-84
2021/12/16 15:48:50;;;;;;;158.32;47.75;;;8.60;99.90;;;;;;5099488;28;20099;-83
2021/12/16 15:51:22;;;;;;;225.60;54.65;;;8.60;99.90;;;;;;5083164;28;20583;-84
2021/12/16 15:53:52;;;;;;;231.10;51.03;;;8.60;99.90;;;;;;5098799;28;20082;-84
2021/12/16 15:56:23;;;;;;;187.98;44.88;;;8.60;99.90;;;;;;5089502;28;20048;-83
2021/12/16 15:59:05;;;;;;;265.25;48.05;;;8.60;99.90;;;;;;5098872;28;20059;-84
2021/12/16 16:01:45;;;;;;;287.02;50.05;;;8.20;99.90;;;;;;5117259;28;20083;-84
2021/12/16 16:04:42;;;;;;;248.35;47.15;;;8.50;99.90;;;;;;5099144;28;20066;-84
2021/12/16 16:07:21;;;;;;;320.73;51.53;;;8.50;99.90;;;;;;5090432;28;20051;-83
2021/12/16 16:09:53;;;;;;;190.15;44.08;;;8.50;99.90;;;;;;5098116;28;20048;-84
2021/12/16 16:12:23;;;;;;;301.10;49.75;;;;;;;;;;5081484;28;20047;-84
2021/12/16 16:14:50;;;;;;;272.35;47.92;;;8.50;99.90;;;;;;5081337;28;20097;-85
2021/12/16 16:17:19;;;;;;;255.23;46.97;;;8.50;99.90;;;;;;5100057;28;20070;-86
2021/12/16 16:19:48;;;;;;;292.17;49.53;;;8.50;99.90;;;;;;5082529;28;20051;-84
2021/12/16 16:22:16;;;;;;;137.88;41.03;;;8.50;99.90;;;;;;5098958;28;20043;-84
2021/12/16 16:24:54;;;;;;;186.10;43.75;;;8.50;99.90;;;;;;5081702;28;20047;-83
2021/12/16 16:27:27;;;;;;;212.77;41.30;;;8.50;99.90;;;;;;5116167;28;20035;-83
2021/12/16 16:30:33;;;;;;;;;;;;;;;;;;;;;
2021/12/16 16:33:12;;;;;;;153.88;41.47;;;8.50;99.90;;;;;;5078446;28;20054;-84
2021/12/16 16:35:49;;;;;;;167.82;40.67;;;8.40;99.90;;;;;;5096978;28;20058;-84
2021/12/16 16:38:19;;;;;;;242.23;44.17;;;8.40;99.90;;;;;;5096552;28;20055;-85
2021/12/16 16:40:50;;;;;;;262.42;44.42;;;8.40;99.90;;;;;;5097643;28;20047;-84
2021/12/16 16:43:30;;;;;;;194.23;41.63;;;8.40;99.90;;;;;;5096485;28;20044;-84
2021/12/16 16:46:24;;;;;;;250.27;45.53;;;8.40;99.90;;;;;;5080286;28;20047;-84
2021/12/16 16:51:44;;;;;;;228.07;42.65;;;8.30;99.90;;;;;;5096548;28;20058;-84
2021/12/16 16:54:34;;;;;;;212.43;38.28;;;8.30;99.90;;;;;;5112291;28;20055;-84
2021/12/16 16:57:13;;;;;;;175.00;34.08;;;8.30;99.90;;;;;;5096058;28;20110;-84